Time;durP1;ratioP1;P1;durP2;ratioP2;P2;SDS_P1;SDS_P2;PMS_P1;PMS_P2;Temp;Humidity;BMP_temperature;BMP_pressure;BME280_temperature;BME280_humidity;BME280_pressure;Samples;Min_cycle;Max_cycle;Signal;HPM_P1;HPM_P2
2021/01/02 00:00:53;;;;;;;18.65;12.88;;;-0.20;99.90;;;;;;5095491;28;20087;-72
2021/01/02 00:03:48;;;;;;;18.73;12.63;;;0.00;99.90;;;;;;5088749;28;20084;-72
2021/01/02 00:06:31;;;;;;;18.92;12.60;;;0.10;99.90;;;;;;5092174;28;20128;-72
2021/01/02 00:09:04;;;;;;;18.27;11.55;;;0.50;99.90;;;;;;5087575;28;20176;-73
2021/01/02 00:11:45;;;;;;;18.90;11.85;;;0.70;99.90;;;;;;5088087;28;20073;-72
2021/01/02 00:14:25;;;;;;;21.10;15.10;;;0.40;99.90;;;;;;5091699;28;20068;-73
2021/01/02 00:16:54;;;;;;;23.80;15.90;;;0.00;99.90;;;;;;5069753;28;20089;-73
2021/01/02 00:19:46;;;;;;;22.33;13.88;;;-0.10;99.90;;;;;;5097309;28;20069;-72
2021/01/02 00:22:50;;;;;;;22.73;13.63;;;-0.10;99.90;;;;;;5095516;28;20088;-72
2021/01/02 00:25:16;;;;;;;22.02;13.70;;;0.00;99.90;;;;;;5045921;28;20085;-72
2021/01/02 00:28:03;;;;;;;26.38;14.52;;;-0.10;99.90;;;;;;5092555;28;20132;-72
2021/01/02 00:30:57;;;;;;;21.60;14.32;;;0.00;99.90;;;;;;5089470;28;20075;-72
2021/01/02 00:33:47;;;;;;;21.83;14.40;;;0.00;99.90;;;;;;5088730;28;20188;-72
2021/01/02 00:36:32;;;;;;;23.50;14.52;;;-0.10;99.90;;;;;;5092355;28;20538;-72
2021/01/02 00:38:58;;;;;;;22.50;13.95;;;-0.20;99.90;;;;;;5087502;28;20617;-72
2021/01/02 00:41:27;;;;;;;19.08;13.32;;;-0.30;99.90;;;;;;5091464;28;20121;-72
2021/01/02 00:43:53;;;;;;;22.50;13.63;;;-0.20;99.90;;;;;;5068688;28;20085;-72
2021/01/02 00:46:19;;;;;;;18.15;12.70;;;-0.20;99.90;;;;;;5087842;28;20711;-72
2021/01/02 00:48:47;;;;;;;19.95;13.25;;;-0.40;99.90;;;;;;5088301;28;20100;-72
2021/01/02 00:51:15;;;;;;;24.95;14.82;;;-0.30;99.90;;;;;;5087126;28;20461;-72
2021/01/02 00:53:55;;;;;;;26.42;14.65;;;-0.20;99.90;;;;;;5071838;28;20093;-72
2021/01/02 00:56:34;;;;;;;20.25;12.50;;;-0.30;99.90;;;;;;5094201;28;20528;-72
2021/01/02 00:59:20;;;;;;;20.00;14.18;;;-0.30;99.90;;;;;;5090321;28;20079;-72
2021/01/02 01:02:12;;;;;;;21.08;14.02;;;-0.40;99.90;;;;;;5090878;28;20124;-72
2021/01/02 01:05:01;;;;;;;19.70;12.75;;;-0.30;99.90;;;;;;5073230;28;20089;-73
2021/01/02 01:07:27;;;;;;;18.88;12.90;;;-0.50;99.90;;;;;;5091148;28;20126;-72
2021/01/02 01:09:58;;;;;;;19.83;12.65;;;-0.40;99.90;;;;;;5105398;28;20076;-72
2021/01/02 01:12:28;;;;;;;19.63;13.52;;;-0.50;99.90;;;;;;5091236;28;20444;-72
2021/01/02 01:14:54;;;;;;;20.60;12.43;;;-0.40;99.90;;;;;;5085582;28;20250;-73
2021/01/02 01:17:22;;;;;;;18.98;12.82;;;-0.30;99.90;;;;;;5096932;28;20129;-72
2021/01/02 01:19:53;;;;;;;18.63;13.00;;;0.20;99.90;;;;;;5070979;28;20084;-72
2021/01/02 01:22:26;;;;;;;22.80;13.55;;;-0.10;99.90;;;;;;5090459;28;20451;-72
2021/01/02 01:25:05;;;;;;;23.25;13.13;;;-0.30;99.90;;;;;;5103714;28;21113;-72
2021/01/02 01:28:02;;;;;;;21.20;14.05;;;-0.30;99.90;;;;;;5107662;28;20088;-72
2021/01/02 01:30:35;;;;;;;19.02;12.05;;;-0.30;99.90;;;;;;5093038;28;20108;-72
2021/01/02 01:33:03;;;;;;;20.58;12.95;;;-0.10;99.90;;;;;;5088012;28;20103;-72
2021/01/02 01:35:29;;;;;;;23.38;13.48;;;-0.20;99.90;;;;;;5088298;28;21032;-72
2021/01/02 01:37:56;;;;;;;24.45;13.20;;;-0.40;99.90;;;;;;5078078;28;20104;-71
2021/01/02 01:40:24;;;;;;;21.75;14.10;;;-0.40;99.90;;;;;;5107327;28;20132;-72
2021/01/02 01:43:05;;;;;;;20.95;12.57;;;-0.50;99.90;;;;;;5089764;28;20096;-72
2021/01/02 01:45:37;;;;;;;17.70;12.88;;;-0.50;99.90;;;;;;5067723;28;20126;-71
2021/01/02 01:48:09;;;;;;;19.10;12.70;;;-0.60;99.90;;;;;;5071927;28;20098;-72
2021/01/02 01:50:55;;;;;;;23.48;13.45;;;-0.60;99.90;;;;;;5093869;28;20073;-72
2021/01/02 01:53:58;;;;;;;17.67;12.43;;;-0.70;99.90;;;;;;5088254;28;20085;-72
2021/01/02 01:56:37;;;;;;;21.63;12.52;;;-0.60;99.90;;;;;;5089972;28;20218;-71
2021/01/02 01:59:15;;;;;;;21.23;13.70;;;-0.60;99.90;;;;;;5083722;28;20131;-71
2021/01/02 02:01:45;;;;;;;19.58;12.38;;;-0.60;99.90;;;;;;5093623;28;20155;-72
2021/01/02 02:04:10;;;;;;;18.95;13.35;;;-0.60;99.90;;;;;;5084020;28;20084;-71
2021/01/02 02:06:45;;;;;;;21.13;13.00;;;-0.60;99.90;;;;;;5075936;28;20072;-72
2021/01/02 02:09:20;;;;;;;18.25;12.10;;;-0.40;99.90;;;;;;5077671;28;20088;-72
2021/01/02 02:11:54;;;;;;;;;;;-0.50;99.90;;;;;;5084640;28;20131;-72
2021/01/02 02:14:36;;;;;;;21.05;13.23;;;-0.50;99.90;;;;;;5088452;28;19964;-72
2021/01/02 02:17:05;;;;;;;20.35;12.27;;;-0.40;99.90;;;;;;5069290;28;20445;-71
2021/01/02 02:19:49;;;;;;;18.25;12.27;;;-0.40;99.90;;;;;;5067557;28;20108;-72
2021/01/02 02:22:16;;;;;;;23.67;13.87;;;-0.40;99.90;;;;;;5087230;28;20160;-72
2021/01/02 02:24:43;;;;;;;22.20;13.30;;;-0.60;99.90;;;;;;5089051;28;20068;-72
2021/01/02 02:27:13;;;;;;;19.65;12.55;;;-0.60;99.90;;;;;;5088752;28;20444;-72
2021/01/02 02:29:51;;;;;;;19.20;13.02;;;-0.40;99.90;;;;;;5089281;28;20133;-72
2021/01/02 02:32:17;;;;;;;21.50;13.75;;;-0.40;99.90;;;;;;5089385;28;20080;-72
2021/01/02 02:34:45;;;;;;;21.38;12.80;;;-0.10;99.90;;;;;;5089408;28;20508;-73
2021/01/02 02:37:10;;;;;;;20.35;12.25;;;-0.20;99.90;;;;;;5103948;28;20094;-72
2021/01/02 02:39:36;;;;;;;21.95;12.25;;;-0.30;99.90;;;;;;5095588;28;20668;-72
2021/01/02 02:42:03;;;;;;;17.25;12.18;;;-0.40;99.90;;;;;;5104132;28;20590;-72
2021/01/02 02:44:37;;;;;;;17.95;12.27;;;-0.40;99.90;;;;;;5101211;28;20204;-72
2021/01/02 02:47:04;;;;;;;21.65;12.07;;;-0.30;99.90;;;;;;5098049;28;20067;-71
2021/01/02 02:49:36;;;;;;;17.52;11.65;;;-0.30;99.90;;;;;;5095882;28;20082;-72
2021/01/02 02:52:23;;;;;;;21.35;12.68;;;-0.20;99.90;;;;;;5100675;28;20464;-71
2021/01/02 02:54:49;;;;;;;23.25;13.68;;;-0.20;99.90;;;;;;5091504;28;20151;-72
2021/01/02 02:57:17;;;;;;;19.95;13.52;;;-0.10;99.90;;;;;;5068937;28;20081;-73
2021/01/02 02:59:43;;;;;;;19.92;12.57;;;-0.10;99.90;;;;;;5088379;28;20095;-71
2021/01/02 03:02:09;;;;;;;21.33;12.70;;;-0.10;99.90;;;;;;5088886;28;20092;-71
2021/01/02 03:04:35;;;;;;;23.77;14.15;;;-0.20;99.90;;;;;;5088576;28;20065;-71
2021/01/02 03:07:04;;;;;;;19.52;12.18;;;-0.10;99.90;;;;;;5091177;28;20091;-72
2021/01/02 03:09:31;;;;;;;20.00;12.63;;;0.10;99.90;;;;;;5092480;28;20068;-72
2021/01/02 03:11:57;;;;;;;19.65;11.95;;;0.30;99.90;;;;;;5087872;28;20114;-72
2021/01/02 03:14:22;;;;;;;21.20;13.32;;;0.30;99.90;;;;;;5068012;28;20493;-72
2021/01/02 03:16:48;;;;;;;19.17;12.30;;;0.20;99.90;;;;;;5097129;28;20072;-73
2021/01/02 03:19:13;;;;;;;19.98;12.63;;;0.30;99.90;;;;;;5089408;28;20167;-73
2021/01/02 03:21:39;;;;;;;22.45;14.77;;;0.10;99.90;;;;;;5104962;28;20080;-72
2021/01/02 03:24:07;;;;;;;19.45;12.45;;;-0.10;99.90;;;;;;5084553;28;20076;-72
2021/01/02 03:26:33;;;;;;;25.40;14.32;;;-0.20;99.90;;;;;;5070251;28;20081;-72
2021/01/02 03:28:58;;;;;;;18.65;11.85;;;-0.20;99.90;;;;;;5101939;28;20131;-72
2021/01/02 03:31:27;;;;;;;18.65;12.38;;;-0.20;99.90;;;;;;5097128;28;20116;-72
2021/01/02 03:33:52;;;;;;;20.45;14.18;;;-0.30;99.90;;;;;;5106224;28;20060;-72
2021/01/02 03:36:18;;;;;;;19.80;12.15;;;-0.20;99.90;;;;;;5085052;28;20343;-71
2021/01/02 03:38:54;;;;;;;21.27;13.50;;;-0.30;99.90;;;;;;5051339;28;20143;-72
2021/01/02 03:41:20;;;;;;;22.55;13.88;;;-0.40;99.90;;;;;;5066472;28;20196;-72
2021/01/02 03:43:46;;;;;;;20.08;13.18;;;-0.50;99.90;;;;;;5067004;28;20088;-72
2021/01/02 03:46:11;;;;;;;22.33;14.85;;;-0.30;99.90;;;;;;5071122;28;20138;-72
2021/01/02 03:48:37;;;;;;;22.20;12.30;;;-0.10;99.90;;;;;;5088651;28;20120;-73
2021/01/02 03:51:03;;;;;;;20.67;13.23;;;0.10;99.90;;;;;;5089028;28;20068;-73
2021/01/02 03:53:29;;;;;;;21.63;13.75;;;0.40;99.90;;;;;;5100098;28;20088;-72
2021/01/02 03:55:55;;;;;;;21.75;14.95;;;0.20;99.90;;;;;;5081782;28;20417;-72
2021/01/02 03:58:21;;;;;;;20.35;13.50;;;0.00;99.90;;;;;;5088867;28;20075;-73
2021/01/02 04:00:46;;;;;;;21.98;14.70;;;0.30;99.90;;;;;;5106440;28;20084;-72
2021/01/02 04:03:12;;;;;;;22.13;13.45;;;0.20;99.90;;;;;;5074370;28;20141;-73
2021/01/02 04:05:38;;;;;;;20.30;12.80;;;0.30;99.90;;;;;;5102672;28;20087;-72
2021/01/02 04:08:04;;;;;;;21.55;13.32;;;0.40;99.90;;;;;;5058338;28;20509;-72
2021/01/02 04:10:30;;;;;;;17.77;12.48;;;0.60;99.90;;;;;;5094037;28;20129;-72
2021/01/02 04:12:56;;;;;;;21.50;13.90;;;0.50;99.90;;;;;;5088857;28;20613;-72
2021/01/02 04:15:21;;;;;;;21.50;12.82;;;0.10;99.90;;;;;;5088148;28;20076;-72
2021/01/02 04:17:47;;;;;;;21.63;13.80;;;0.20;99.90;;;;;;5093135;28;20172;-72
2021/01/02 04:20:12;;;;;;;23.30;14.05;;;0.30;99.90;;;;;;5071163;28;20114;-72
2021/01/02 04:22:38;;;;;;;21.17;12.85;;;0.30;99.90;;;;;;5087156;28;20104;-72
2021/01/02 04:25:05;;;;;;;23.23;13.65;;;0.20;99.90;;;;;;5089577;28;20080;-72
2021/01/02 04:27:30;;;;;;;20.95;13.27;;;0.10;99.90;;;;;;5101280;28;20092;-72
2021/01/02 04:29:56;;;;;;;20.92;13.15;;;0.10;99.90;;;;;;5082539;28;20570;-72
2021/01/02 04:32:22;;;;;;;21.17;12.90;;;0.10;99.90;;;;;;5092025;28;20093;-72
2021/01/02 04:34:47;;;;;;;21.60;13.93;;;0.20;99.90;;;;;;5093198;28;20148;-72
2021/01/02 04:37:14;;;;;;;18.90;12.45;;;0.30;99.90;;;;;;5091441;28;20083;-73
2021/01/02 04:39:39;;;;;;;22.05;13.07;;;0.60;99.90;;;;;;5090219;28;20077;-73
2021/01/02 04:42:05;;;;;;;20.70;12.55;;;0.80;99.90;;;;;;5093183;28;20091;-72
2021/01/02 04:44:31;;;;;;;22.92;12.85;;;0.60;99.90;;;;;;5090463;28;20072;-72
2021/01/02 04:46:59;;;;;;;21.67;13.35;;;0.50;99.90;;;;;;5076286;28;20073;-73
2021/01/02 04:49:25;;;;;;;23.23;13.40;;;0.50;99.90;;;;;;5093701;28;20072;-72
2021/01/02 04:51:58;;;;;;;22.20;13.15;;;0.60;99.90;;;;;;5090531;28;20179;-72
2021/01/02 04:54:24;;;;;;;21.55;12.95;;;0.70;99.90;;;;;;5088595;28;20080;-72
2021/01/02 04:56:50;;;;;;;20.05;13.27;;;0.80;99.90;;;;;;5089995;28;20080;-73
2021/01/02 04:59:18;;;;;;;21.83;13.52;;;0.80;99.90;;;;;;5109180;28;20083;-73
2021/01/02 05:01:49;;;;;;;22.52;13.07;;;0.60;99.90;;;;;;5091986;28;20572;-72
2021/01/02 05:04:15;;;;;;;23.25;13.25;;;0.70;99.90;;;;;;5093043;28;20095;-72
2021/01/02 05:06:40;;;;;;;18.88;13.10;;;0.60;99.90;;;;;;5072220;28;20105;-72
2021/01/02 05:09:07;;;;;;;19.05;11.98;;;0.70;99.90;;;;;;5068880;28;20592;-72
2021/01/02 05:11:39;;;;;;;25.23;14.05;;;0.90;99.90;;;;;;5072070;28;20083;-72
2021/01/02 05:14:06;;;;;;;23.20;12.40;;;0.70;99.90;;;;;;5102250;28;20072;-73
2021/01/02 05:16:39;;;;;;;21.13;13.27;;;0.60;99.90;;;;;;5103674;28;20076;-72
2021/01/02 05:19:09;;;;;;;19.75;13.30;;;0.80;99.90;;;;;;5099250;28;20072;-72
2021/01/02 05:21:36;;;;;;;22.42;13.75;;;0.80;99.90;;;;;;5103736;28;20085;-72
2021/01/02 05:24:06;;;;;;;17.95;12.38;;;0.70;99.90;;;;;;5089357;28;20080;-73
2021/01/02 05:26:33;;;;;;;24.20;13.80;;;0.70;99.90;;;;;;5096481;28;20309;-72
2021/01/02 05:29:19;;;;;;;21.33;13.38;;;0.80;99.90;;;;;;5091174;28;20089;-72
2021/01/02 05:31:48;;;;;;;;;;;0.80;99.90;;;;;;5094834;28;20087;-72
2021/01/02 05:34:16;;;;;;;19.08;12.25;;;0.80;99.90;;;;;;5107675;28;19960;-72
2021/01/02 05:36:41;;;;;;;24.05;14.10;;;0.70;99.90;;;;;;5098665;28;20083;-72
2021/01/02 05:39:10;;;;;;;19.17;11.75;;;0.90;99.90;;;;;;5090324;28;20148;-73
2021/01/02 05:41:54;;;;;;;21.20;13.18;;;1.10;99.90;;;;;;5102588;28;20470;-72
2021/01/02 05:44:21;;;;;;;18.05;13.07;;;1.10;99.90;;;;;;5069977;28;20231;-72
2021/01/02 05:46:53;;;;;;;19.35;12.77;;;1.10;99.90;;;;;;5085319;28;20083;-72
2021/01/02 05:49:38;;;;;;;22.63;13.68;;;1.00;99.90;;;;;;5091696;28;20088;-72
2021/01/02 05:52:06;;;;;;;21.52;13.63;;;0.80;99.90;;;;;;5090660;28;20088;-72
2021/01/02 05:54:33;;;;;;;19.30;12.27;;;1.00;99.90;;;;;;5096979;28;20072;-72
2021/01/02 05:57:01;;;;;;;19.02;12.50;;;1.20;99.90;;;;;;5096321;28;20088;-72
2021/01/02 05:59:31;;;;;;;21.65;13.75;;;1.20;99.90;;;;;;5106559;28;20804;-73
2021/01/02 06:01:58;;;;;;;20.58;12.52;;;1.20;99.90;;;;;;5085691;28;20096;-72
2021/01/02 06:04:24;;;;;;;20.50;12.85;;;1.20;99.90;;;;;;5090183;28;20107;-72
2021/01/02 06:07:06;;;;;;;19.73;12.82;;;1.10;99.90;;;;;;5091946;28;20838;-72
2021/01/02 06:09:35;;;;;;;20.13;13.25;;;1.00;99.90;;;;;;5093084;28;20129;-73
2021/01/02 06:12:04;;;;;;;21.35;11.93;;;1.10;99.90;;;;;;5090129;28;20108;-72
2021/01/02 06:14:33;;;;;;;18.90;12.05;;;1.10;99.90;;;;;;5095777;28;20099;-72
2021/01/02 06:17:04;;;;;;;20.35;12.23;;;1.00;99.90;;;;;;5089866;28;20064;-72
2021/01/02 06:19:30;;;;;;;20.52;11.95;;;1.20;99.90;;;;;;5095455;28;20129;-73
2021/01/02 06:21:56;;;;;;;19.52;13.00;;;1.30;99.90;;;;;;5105996;28;20136;-72
2021/01/02 06:24:22;;;;;;;21.50;13.82;;;1.20;99.90;;;;;;5076308;28;20077;-72
2021/01/02 06:26:48;;;;;;;20.88;12.73;;;1.30;99.90;;;;;;5070931;28;20764;-73
2021/01/02 06:29:13;;;;;;;20.23;12.15;;;1.30;99.90;;;;;;5097768;28;20088;-72
2021/01/02 06:31:39;;;;;;;22.23;12.73;;;1.30;99.90;;;;;;5081466;28;20076;-73
2021/01/02 06:34:05;;;;;;;22.95;14.15;;;1.30;99.90;;;;;;5093307;28;20068;-72
2021/01/02 06:36:36;;;;;;;22.75;13.27;;;1.30;99.90;;;;;;5089552;28;20080;-72
2021/01/02 06:39:18;;;;;;;25.58;14.50;;;1.30;99.90;;;;;;5096214;28;20584;-73
2021/01/02 06:41:44;;;;;;;22.40;14.10;;;1.30;99.90;;;;;;5091399;28;20090;-71
2021/01/02 06:44:11;;;;;;;26.90;14.77;;;1.30;99.90;;;;;;5086376;28;20555;-72
2021/01/02 06:46:37;;;;;;;22.52;14.02;;;1.40;99.90;;;;;;5089184;28;20084;-72
2021/01/02 06:49:34;;;;;;;22.45;14.10;;;1.30;99.90;;;;;;5090627;28;20100;-72
2021/01/02 06:52:03;;;;;;;21.13;12.98;;;1.20;99.90;;;;;;5080017;28;20088;-73
2021/01/02 06:54:28;;;;;;;23.20;13.43;;;1.20;99.90;;;;;;5097202;28;20072;-71
2021/01/02 06:57:05;;;;;;;23.65;13.82;;;1.20;99.90;;;;;;5109480;28;20072;-72
2021/01/02 06:59:31;;;;;;;21.35;14.43;;;1.10;99.90;;;;;;5109854;28;20075;-72
2021/01/02 07:01:57;;;;;;;21.15;13.43;;;1.10;99.90;;;;;;5109684;28;20083;-72
2021/01/02 07:04:37;;;;;;;20.23;12.90;;;1.10;99.90;;;;;;5094712;28;20100;-72
2021/01/02 07:07:06;;;;;;;20.85;12.93;;;1.30;99.90;;;;;;5067614;28;20112;-73
2021/01/02 07:09:32;;;;;;;22.27;12.82;;;1.30;99.90;;;;;;5089056;28;20112;-72
2021/01/02 07:12:13;;;;;;;21.70;13.90;;;1.40;99.90;;;;;;5098744;28;20108;-72
2021/01/02 07:14:39;;;;;;;22.02;13.68;;;1.40;99.90;;;;;;5095065;28;20111;-73
2021/01/02 07:17:10;;;;;;;21.50;13.93;;;1.40;99.90;;;;;;5109061;28;20072;-72
2021/01/02 07:19:36;;;;;;;20.52;12.60;;;1.40;99.90;;;;;;5077475;28;20084;-72
2021/01/02 07:22:10;;;;;;;22.35;13.35;;;1.30;99.90;;;;;;5088511;28;20145;-73
2021/01/02 07:24:43;;;;;;;20.77;13.10;;;1.40;99.90;;;;;;5088136;28;20152;-73
2021/01/02 07:27:17;;;;;;;22.70;14.18;;;1.40;99.90;;;;;;5070497;28;20115;-72
2021/01/02 07:29:46;;;;;;;24.00;13.43;;;1.40;99.90;;;;;;5070544;28;20072;-72
2021/01/02 07:32:17;;;;;;;20.15;11.80;;;1.40;99.90;;;;;;5088822;28;20130;-73
2021/01/02 07:34:54;;;;;;;24.27;14.60;;;1.40;99.90;;;;;;5088355;28;20432;-73
2021/01/02 07:37:22;;;;;;;24.17;14.27;;;1.40;99.90;;;;;;5088567;28;20095;-72
2021/01/02 07:39:55;;;;;;;20.67;12.85;;;1.40;99.90;;;;;;5088299;28;20117;-72
2021/01/02 07:42:24;;;;;;;18.10;11.65;;;1.30;99.90;;;;;;5088912;28;20100;-72
2021/01/02 07:44:57;;;;;;;19.70;12.80;;;1.40;99.90;;;;;;5088488;28;20073;-73
2021/01/02 07:47:23;;;;;;;22.92;13.07;;;1.50;99.90;;;;;;5088091;28;20152;-72
2021/01/02 07:49:49;;;;;;;26.10;15.30;;;1.40;99.90;;;;;;5088648;28;20117;-73
2021/01/02 07:52:15;;;;;;;24.35;15.10;;;1.50;99.90;;;;;;5088453;28;20080;-72
2021/01/02 07:54:40;;;;;;;28.65;15.70;;;1.50;99.90;;;;;;5087407;28;20568;-72
2021/01/02 07:57:07;;;;;;;30.70;16.08;;;1.40;99.90;;;;;;5087954;28;20086;-72
2021/01/02 07:59:38;;;;;;;27.75;15.32;;;1.40;99.90;;;;;;5092337;28;20069;-73
2021/01/02 08:02:09;;;;;;;27.17;15.15;;;1.50;99.90;;;;;;5092744;28;20141;-72
2021/01/02 08:04:35;;;;;;;26.83;15.25;;;1.40;99.90;;;;;;5092176;28;20068;-73
2021/01/02 08:07:03;;;;;;;29.88;18.25;;;1.30;99.90;;;;;;5092046;28;20069;-73
2021/01/02 08:09:31;;;;;;;28.85;17.05;;;1.20;99.90;;;;;;5091029;28;20514;-72
2021/01/02 08:12:04;;;;;;;28.10;16.45;;;1.20;99.90;;;;;;5083264;28;20445;-72
2021/01/02 08:14:31;;;;;;;29.13;17.48;;;1.20;99.90;;;;;;5062424;28;20473;-72
2021/01/02 08:17:04;;;;;;;30.42;17.05;;;1.20;99.90;;;;;;5085357;28;20079;-72
2021/01/02 08:19:37;;;;;;;27.45;16.45;;;1.20;99.90;;;;;;5092216;28;20083;-72
2021/01/02 08:22:05;;;;;;;31.17;16.80;;;1.20;99.90;;;;;;5073856;28;20092;-72
2021/01/02 08:24:31;;;;;;;33.88;17.42;;;1.20;99.90;;;;;;5091191;28;20081;-72
2021/01/02 08:26:57;;;;;;;25.17;15.50;;;1.10;99.90;;;;;;5092546;28;20130;-72
2021/01/02 08:29:25;;;;;;;30.42;17.40;;;1.20;99.90;;;;;;5096717;28;20096;-73
2021/01/02 08:32:09;;;;;;;31.40;18.48;;;1.20;99.90;;;;;;5093341;28;20819;-73
2021/01/02 08:34:35;;;;;;;31.52;18.38;;;1.20;99.90;;;;;;5075306;28;20108;-73
2021/01/02 08:37:04;;;;;;;31.30;17.67;;;1.10;99.90;;;;;;5091850;28;20095;-73
2021/01/02 08:39:30;;;;;;;29.05;16.77;;;1.00;99.90;;;;;;5071729;28;20160;-73
2021/01/02 08:41:58;;;;;;;30.88;18.40;;;1.20;99.90;;;;;;5078995;28;20108;-73
2021/01/02 08:44:26;;;;;;;31.88;16.73;;;1.20;99.90;;;;;;5091671;28;20103;-73
2021/01/02 08:46:52;;;;;;;31.92;18.27;;;1.30;99.90;;;;;;5092210;28;20074;-74
2021/01/02 08:49:29;;;;;;;31.85;19.35;;;1.30;99.90;;;;;;5092252;28;20084;-73
2021/01/02 08:52:17;;;;;;;30.90;17.17;;;1.20;99.90;;;;;;5091506;28;20098;-73
2021/01/02 08:54:43;;;;;;;29.73;16.80;;;1.20;99.90;;;;;;5072769;28;20072;-73
2021/01/02 08:57:28;;;;;;;29.42;16.58;;;1.20;99.90;;;;;;5091468;28;20102;-73
2021/01/02 09:00:20;;;;;;;29.50;18.77;;;1.20;99.90;;;;;;5091429;28;20141;-72
2021/01/02 09:02:54;;;;;;;30.83;17.92;;;1.30;99.90;;;;;;5089184;28;20088;-73
2021/01/02 09:05:52;;;;;;;34.72;17.65;;;1.40;99.90;;;;;;5081218;28;20420;-73
2021/01/02 09:08:19;;;;;;;30.27;17.52;;;1.40;99.90;;;;;;5038535;28;20239;-73
2021/01/02 09:10:46;;;;;;;30.20;17.60;;;1.40;99.90;;;;;;5075625;28;20129;-73
2021/01/02 09:13:25;;;;;;;30.85;17.50;;;1.40;99.90;;;;;;5072018;28;20097;-72
2021/01/02 09:16:04;;;;;;;30.15;17.92;;;1.30;99.90;;;;;;5090757;28;20524;-73
2021/01/02 09:18:29;;;;;;;35.25;18.63;;;1.40;99.90;;;;;;5080892;28;20499;-73
2021/01/02 09:20:56;;;;;;;33.88;18.65;;;1.50;99.90;;;;;;5071477;28;20096;-73
2021/01/02 09:23:35;;;;;;;37.13;19.10;;;1.40;99.90;;;;;;5071366;28;20093;-72
2021/01/02 09:26:02;;;;;;;34.42;18.85;;;1.30;99.90;;;;;;5071415;28;20073;-73
2021/01/02 09:28:27;;;;;;;37.40;20.08;;;1.30;99.90;;;;;;5060815;28;20092;-73
2021/01/02 09:30:53;;;;;;;39.60;20.67;;;1.10;99.90;;;;;;5090373;28;20069;-71
2021/01/02 09:33:19;;;;;;;37.72;20.23;;;1.10;99.90;;;;;;5070731;28;20488;-72
2021/01/02 09:35:46;;;;;;;35.83;20.17;;;1.10;99.90;;;;;;5079042;28;20084;-73
2021/01/02 09:38:13;;;;;;;38.15;19.42;;;1.10;99.90;;;;;;5090897;28;20159;-74
2021/01/02 09:40:41;;;;;;;38.33;20.20;;;1.10;99.90;;;;;;5090691;28;20080;-74
2021/01/02 09:43:12;;;;;;;37.13;20.00;;;1.10;99.90;;;;;;5090726;28;20092;-73
2021/01/02 09:45:38;;;;;;;35.83;19.25;;;1.10;99.90;;;;;;5075763;28;20087;-74
2021/01/02 09:48:04;;;;;;;44.42;22.55;;;1.10;99.90;;;;;;5055255;28;20099;-76
2021/01/02 09:50:30;;;;;;;48.03;23.70;;;1.10;99.90;;;;;;5068307;28;20134;-79
2021/01/02 09:52:55;;;;;;;53.55;25.38;;;1.10;99.90;;;;;;5071904;28;20084;-76
2021/01/02 09:55:21;;;;;;;63.13;28.02;;;1.00;99.90;;;;;;5069052;28;20073;-75
2021/01/02 09:57:50;;;;;;;55.58;24.92;;;1.00;99.90;;;;;;5072756;28;20134;-76
2021/01/02 10:00:17;;;;;;;126.32;42.13;;;0.90;99.90;;;;;;5088141;28;20096;-74
2021/01/02 10:02:43;;;;;;;78.72;30.50;;;1.00;99.90;;;;;;5071859;28;20510;-75
2021/01/02 10:05:12;;;;;;;41.15;20.77;;;1.00;99.90;;;;;;5089594;28;20076;-75
2021/01/02 10:07:37;;;;;;;45.58;23.58;;;0.90;99.90;;;;;;5088881;28;20476;-74
2021/01/02 10:10:03;;;;;;;50.15;23.52;;;0.80;99.90;;;;;;5072635;28;20085;-76
2021/01/02 10:12:29;;;;;;;48.10;21.50;;;0.70;99.90;;;;;;5069506;28;20116;-74
2021/01/02 10:14:54;;;;;;;37.03;19.50;;;0.70;99.90;;;;;;5069089;28;20270;-75
2021/01/02 10:17:20;;;;;;;40.35;21.60;;;0.60;99.90;;;;;;5068909;28;20142;-74
2021/01/02 10:19:47;;;;;;;44.70;20.73;;;0.60;99.90;;;;;;5068248;28;20077;-74
2021/01/02 10:22:15;;;;;;;45.10;21.73;;;0.70;99.90;;;;;;5050046;28;20097;-74
2021/01/02 10:24:40;;;;;;;44.22;20.98;;;0.70;99.90;;;;;;5069239;28;20084;-75
2021/01/02 10:27:07;;;;;;;44.38;23.38;;;0.70;99.90;;;;;;5065684;28;20617;-74
2021/01/02 10:29:36;;;;;;;43.55;22.10;;;0.60;99.90;;;;;;5090624;28;20187;-77
2021/01/02 10:32:03;;;;;;;49.05;22.13;;;0.60;99.90;;;;;;5081347;28;20172;-73
2021/01/02 10:34:29;;;;;;;43.20;23.08;;;0.60;99.90;;;;;;5090041;28;20547;-75
2021/01/02 10:36:55;;;;;;;45.47;23.05;;;0.60;99.90;;;;;;5081062;28;20085;-75
2021/01/02 10:39:21;;;;;;;43.03;21.58;;;0.50;99.90;;;;;;5083028;28;20156;-75
2021/01/02 10:41:47;;;;;;;45.58;22.15;;;0.60;99.90;;;;;;5083952;28;20103;-74
2021/01/02 10:44:14;;;;;;;52.65;24.92;;;0.50;99.90;;;;;;5069390;28;20148;-73
2021/01/02 10:46:44;;;;;;;53.13;26.35;;;0.40;99.90;;;;;;5052096;28;20085;-73
2021/01/02 10:49:10;;;;;;;48.65;23.10;;;0.60;99.90;;;;;;5070464;28;20100;-76
2021/01/02 10:51:37;;;;;;;44.20;20.52;;;0.40;99.90;;;;;;5055500;28;20073;-73
2021/01/02 10:54:03;;;;;;;45.88;21.50;;;0.40;99.90;;;;;;5089478;28;20151;-74
2021/01/02 10:56:28;;;;;;;44.25;22.70;;;0.30;99.90;;;;;;5090149;28;20214;-74
2021/01/02 10:58:54;;;;;;;48.70;21.48;;;0.20;99.90;;;;;;5090142;28;20213;-73
2021/01/02 11:01:19;;;;;;;44.17;19.90;;;0.20;99.90;;;;;;5088574;28;20083;-73
2021/01/02 11:03:45;;;;;;;49.97;23.33;;;0.20;99.90;;;;;;5088638;28;20564;-74
2021/01/02 11:06:14;;;;;;;54.72;23.17;;;0.30;99.90;;;;;;5088924;28;20076;-76
2021/01/02 11:08:40;;;;;;;54.38;25.73;;;0.30;99.90;;;;;;5089930;28;20555;-73
2021/01/02 11:11:07;;;;;;;50.40;21.80;;;0.30;99.90;;;;;;5089885;28;20103;-73
2021/01/02 11:13:33;;;;;;;48.38;21.80;;;0.30;99.90;;;;;;5089917;28;20100;-73
2021/01/02 11:15:59;;;;;;;53.00;23.58;;;0.20;99.90;;;;;;5062159;28;20084;-73
2021/01/02 11:18:26;;;;;;;54.00;24.67;;;0.20;99.90;;;;;;5090037;28;20080;-74
2021/01/02 11:20:52;;;;;;;58.15;24.42;;;0.20;99.90;;;;;;5089488;28;20092;-73
2021/01/02 11:23:19;;;;;;;53.85;23.48;;;0.20;99.90;;;;;;5089848;28;20124;-74
2021/01/02 11:25:45;;;;;;;50.38;20.15;;;0.20;99.90;;;;;;5070833;28;20533;-73
2021/01/02 11:28:11;;;;;;;50.10;22.42;;;0.30;99.90;;;;;;5088883;28;20100;-72
2021/01/02 11:30:36;;;;;;;46.08;21.63;;;0.30;99.90;;;;;;5087915;28;20079;-72
2021/01/02 11:33:02;;;;;;;46.75;20.95;;;0.30;99.90;;;;;;5088131;28;20096;-72
2021/01/02 11:35:27;;;;;;;50.30;23.55;;;0.30;99.90;;;;;;5083903;28;20084;-72
2021/01/02 11:37:53;;;;;;;45.70;22.80;;;0.40;99.90;;;;;;5078405;28;20084;-73
2021/01/02 11:40:19;;;;;;;57.72;21.92;;;0.30;99.90;;;;;;5081028;28;20105;-73
2021/01/02 11:42:45;;;;;;;48.35;21.85;;;0.40;99.90;;;;;;5083983;28;20096;-72
2021/01/02 11:45:21;;;;;;;52.13;24.58;;;0.40;99.90;;;;;;5089589;28;20084;-72
2021/01/02 11:47:46;;;;;;;48.15;24.40;;;0.30;99.90;;;;;;5089948;28;20088;-73
2021/01/02 11:50:13;;;;;;;51.03;23.88;;;0.20;99.90;;;;;;5089857;28;20618;-72
2021/01/02 11:52:39;;;;;;;52.47;22.25;;;0.20;99.90;;;;;;5089345;28;20084;-72
2021/01/02 11:55:06;;;;;;;51.67;24.67;;;0.10;99.90;;;;;;5070333;28;20563;-72
2021/01/02 11:57:33;;;;;;;53.70;24.38;;;0.20;99.90;;;;;;5076038;28;20555;-74
2021/01/02 11:59:58;;;;;;;51.10;23.77;;;0.20;99.90;;;;;;5069777;28;20081;-73
2021/01/02 12:02:24;;;;;;;51.83;23.27;;;0.00;99.90;;;;;;5070307;28;20631;-75
2021/01/02 12:04:50;;;;;;;48.40;22.03;;;-0.10;99.90;;;;;;5081840;28;20539;-73
2021/01/02 12:07:15;;;;;;;44.17;21.02;;;-0.10;99.90;;;;;;5091925;28;20076;-73
2021/01/02 12:09:45;;;;;;;59.23;24.27;;;-0.20;99.90;;;;;;5091016;28;20162;-73
2021/01/02 12:12:11;;;;;;;46.60;21.15;;;-0.20;99.90;;;;;;5087271;28;20126;-73
2021/01/02 12:14:37;;;;;;;66.13;25.00;;;-0.30;99.90;;;;;;5087427;28;20072;-73
2021/01/02 12:17:08;;;;;;;50.55;22.48;;;-0.40;99.90;;;;;;5089505;28;20083;-74
2021/01/02 12:19:34;;;;;;;50.07;24.80;;;-0.30;99.90;;;;;;5096409;28;20528;-73
2021/01/02 12:22:04;;;;;;;50.33;23.23;;;-0.20;99.90;;;;;;5107932;28;20098;-73
2021/01/02 12:24:30;;;;;;;67.70;28.47;;;-0.30;99.90;;;;;;5104305;28;20172;-74
2021/01/02 12:27:02;;;;;;;75.67;28.77;;;-0.50;99.90;;;;;;5092567;28;20167;-73
2021/01/02 12:29:30;;;;;;;83.20;31.10;;;-0.70;99.90;;;;;;5077788;28;20099;-73
2021/01/02 12:31:58;;;;;;;75.27;28.57;;;-0.70;99.90;;;;;;5100711;28;20120;-73
2021/01/02 12:34:26;;;;;;;92.80;33.00;;;-0.80;99.90;;;;;;5093574;28;20150;-72
2021/01/02 12:36:53;;;;;;;66.23;26.73;;;-0.70;99.90;;;;;;5066602;28;20167;-72
2021/01/02 12:39:25;;;;;;;56.43;26.47;;;-0.70;99.90;;;;;;5072054;28;20085;-72
2021/01/02 12:41:51;;;;;;;56.87;25.53;;;-0.70;99.90;;;;;;5084470;28;20203;-72
2021/01/02 12:44:17;;;;;;;55.77;24.90;;;-0.70;99.90;;;;;;5087109;28;20164;-73
2021/01/02 12:46:47;;;;;;;52.03;24.53;;;-0.70;99.90;;;;;;5091613;28;20528;-73
2021/01/02 12:49:23;;;;;;;53.07;24.80;;;-0.60;99.90;;;;;;5071004;28;20118;-72